Time;durP1;ratioP1;P1;durP2;ratioP2;P2;SDS_P1;SDS_P2;PMS_P1;PMS_P2;Temp;Humidity;BMP_temperature;BMP_pressure;BME280_temperature;BME280_humidity;BME280_pressure;Samples;Min_cycle;Max_cycle;Signal;HPM_P1;HPM_P2
2024/01/01 00:01:47;;;;;;;18.90;7.90;;;;;;;;;;5025651;28;20053;-57
2024/01/01 00:04:13;;;;;;;15.38;7.25;;;;;;;;;;5019474;28;20030;-57
2024/01/01 00:06:40;;;;;;;16.02;7.05;;;;;;;;;;5021846;28;20661;-57
2024/01/01 00:09:06;;;;;;;17.55;7.13;;;;;;;;;;5024517;28;20057;-56
2024/01/01 00:11:32;;;;;;;11.65;5.43;;;;;;;;;;5021174;28;20050;-58
2024/01/01 00:13:58;;;;;;;10.15;4.90;;;;;;;;;;5020281;28;20042;-57
2024/01/01 00:16:24;;;;;;;11.57;5.18;;;;;;;;;;5014260;28;20057;-57
2024/01/01 00:18:52;;;;;;;10.18;4.97;;;;;;;;;;5024616;28;20053;-56
2024/01/01 00:21:18;;;;;;;10.80;4.38;;;;;;;;;;5013709;28;20049;-56
2024/01/01 00:23:44;;;;;;;11.30;5.20;;;;;;;;;;5019162;28;20033;-56
2024/01/01 00:26:10;;;;;;;12.63;5.30;;;;;;;;;;5027560;28;20033;-57
2024/01/01 00:28:37;;;;;;;11.48;4.47;;;;;;;;;;5013849;28;20053;-57
2024/01/01 00:31:03;;;;;;;13.70;4.50;;;;;;;;;;5014281;28;20501;-57
2024/01/01 00:33:29;;;;;;;12.85;4.95;;;;;;;;;;5012657;28;20041;-56
2024/01/01 00:35:55;;;;;;;12.27;5.57;;;;;;;;;;5020901;28;20053;-55
2024/01/01 00:38:21;;;;;;;10.85;4.95;;;;;;;;;;5024760;28;20493;-56
2024/01/01 00:40:47;;;;;;;12.63;5.47;;;;;;;;;;5022907;28;20042;-56
2024/01/01 00:43:14;;;;;;;16.20;5.95;;;;;;;;;;5011910;28;20506;-56
2024/01/01 00:45:40;;;;;;;13.73;6.10;;;;;;;;;;5021575;28;20409;-56
2024/01/01 00:48:06;;;;;;;14.35;5.47;;;;;;;;;;5015546;28;20046;-56
2024/01/01 00:50:32;;;;;;;12.85;5.75;;;;;;;;;;5017087;28;20048;-57
2024/01/01 00:52:58;;;;;;;19.35;6.22;;;;;;;;;;5023216;28;20034;-55
2024/01/01 00:55:24;;;;;;;12.65;6.10;;;;;;;;;;5021336;28;20030;-56
2024/01/01 00:57:50;;;;;;;13.00;6.05;;;;;;;;;;5028980;28;20033;-55
2024/01/01 01:00:16;;;;;;;13.30;5.85;;;;;;;;;;5015373;28;20121;-56
2024/01/01 01:02:43;;;;;;;13.63;6.68;;;;;;;;;;5047304;28;20040;-56
2024/01/01 01:05:09;;;;;;;14.90;6.53;;;;;;;;;;5027618;28;20053;-57
2024/01/01 01:07:36;;;;;;;14.23;6.22;;;;;;;;;;5025895;28;20036;-56
2024/01/01 01:10:04;;;;;;;14.35;6.90;;;;;;;;;;5033576;28;20038;-56
2024/01/01 01:12:30;;;;;;;15.27;6.07;;;;;;;;;;5039756;28;20045;-55
2024/01/01 01:14:56;;;;;;;12.50;5.57;;;;;;;;;;5020883;28;20053;-55
2024/01/01 01:17:22;;;;;;;13.05;6.07;;;;;;;;;;5025755;28;20045;-56
2024/01/01 01:19:48;;;;;;;15.80;6.13;;;;;;;;;;5025393;28;20044;-56
2024/01/01 01:22:14;;;;;;;12.75;5.57;;;;;;;;;;5015230;28;20038;-58
2024/01/01 01:24:41;;;;;;;12.88;5.35;;;;;;;;;;5036904;28;20030;-55
2024/01/01 01:27:07;;;;;;;11.88;5.10;;;;;;;;;;5027817;28;20037;-55
2024/01/01 01:29:33;;;;;;;11.77;5.05;;;;;;;;;;5030580;28;20024;-55
2024/01/01 01:31:59;;;;;;;14.57;5.18;;;;;;;;;;5032107;28;20049;-55
2024/01/01 01:34:25;;;;;;;16.60;5.57;;;;;;;;;;5030147;28;20037;-58
2024/01/01 01:36:51;;;;;;;12.50;5.38;;;;;;;;;;5037689;28;20051;-55
2024/01/01 01:39:17;;;;;;;9.55;4.68;;;;;;;;;;5034772;28;20045;-55
2024/01/01 01:41:44;;;;;;;10.38;4.35;;;;;;;;;;5027072;28;20072;-58
2024/01/01 01:44:10;;;;;;;11.75;4.05;;;;;;;;;;5021861;28;20045;-57
2024/01/01 01:46:36;;;;;;;8.63;3.92;;;;;;;;;;5029583;28;20041;-57
2024/01/01 01:49:02;;;;;;;11.38;4.18;;;;;;;;;;5015866;28;20113;-58
2024/01/01 01:51:29;;;;;;;11.27;4.00;;;;;;;;;;5019583;28;20033;-57
2024/01/01 01:53:56;;;;;;;10.40;3.75;;;;;;;;;;5028595;28;20069;-58
2024/01/01 01:56:22;;;;;;;8.48;3.60;;;;;;;;;;5046812;28;20038;-58
2024/01/01 01:58:48;;;;;;;8.77;3.35;;;;;;;;;;5026268;28;20068;-57
2024/01/01 02:01:15;;;;;;;7.50;3.58;;;;;;;;;;5026673;28;20476;-58
2024/01/01 02:03:43;;;;;;;13.68;4.10;;;;;;;;;;5032900;28;20032;-58
2024/01/01 02:06:09;;;;;;;12.90;3.72;;;;;;;;;;5017377;28;20041;-58
2024/01/01 02:08:36;;;;;;;11.75;3.85;;;;;;;;;;5017796;28;20033;-57
2024/01/01 02:11:02;;;;;;;9.23;3.60;;;;;;;;;;5023761;28;20049;-58
2024/01/01 02:13:29;;;;;;;11.25;4.18;;;;;;;;;;5031922;28;20041;-58
2024/01/01 02:15:56;;;;;;;8.75;4.03;;;;;;;;;;5023370;28;20054;-57
2024/01/01 02:18:25;;;;;;;9.90;3.70;;;;;;;;;;5034705;28;20064;-57
2024/01/01 02:20:51;;;;;;;8.65;3.88;;;;;;;;;;5016978;28;20034;-58
2024/01/01 02:23:18;;;;;;;10.38;3.80;;;;;;;;;;5025302;28;20029;-58
2024/01/01 02:25:45;;;;;;;8.23;3.63;;;;;;;;;;5013687;28;20054;-57
2024/01/01 02:28:11;;;;;;;13.32;4.30;;;;;;;;;;5032611;28;20029;-58
2024/01/01 02:30:38;;;;;;;10.10;4.18;;;;;;;;;;5039845;28;20055;-57
2024/01/01 02:33:11;;;;;;;8.63;3.97;;;;;;;;;;5019204;28;20044;-58
2024/01/01 02:35:38;;;;;;;11.90;3.85;;;;;;;;;;5025532;28;20397;-57
2024/01/01 02:38:04;;;;;;;11.50;4.60;;;;;;;;;;5025701;28;20615;-58
2024/01/01 02:40:34;;;;;;;9.32;5.10;;;;;;;;;;5022451;28;21087;-57
2024/01/01 02:43:01;;;;;;;10.98;4.20;;;;;;;;;;5021459;28;21286;-58
2024/01/01 02:45:32;;;;;;;12.50;5.30;;;;;;;;;;5027384;28;20049;-58
2024/01/01 02:47:58;;;;;;;13.02;4.72;;;;;;;;;;5022419;28;20045;-60
2024/01/01 02:50:25;;;;;;;9.93;4.30;;;;;;;;;;5023509;28;20057;-57
2024/01/01 02:52:51;;;;;;;12.35;4.28;;;;;;;;;;5019153;28;20046;-57
2024/01/01 02:55:18;;;;;;;11.80;5.10;;;;;;;;;;5023990;28;20400;-57
2024/01/01 02:57:44;;;;;;;9.52;4.10;;;;;;;;;;5020694;28;20500;-57
2024/01/01 03:00:14;;;;;;;11.18;4.47;;;;;;;;;;5021680;28;20053;-58
2024/01/01 03:02:41;;;;;;;9.52;4.30;;;;;;;;;;5022604;28;20378;-57
2024/01/01 03:05:08;;;;;;;10.85;4.05;;;;;;;;;;5012714;28;20037;-57
2024/01/01 03:07:35;;;;;;;6.10;3.13;;;;;;;;;;5022771;28;20045;-58
2024/01/01 03:10:01;;;;;;;8.65;3.40;;;;;;;;;;5020692;28;20049;-57
2024/01/01 03:12:27;;;;;;;10.75;3.90;;;;;;;;;;5025454;28;20061;-57
2024/01/01 03:14:53;;;;;;;9.85;4.05;;;;;;;;;;5032988;28;20048;-57
2024/01/01 03:17:19;;;;;;;15.32;4.15;;;;;;;;;;5025522;28;20034;-58
2024/01/01 03:19:46;;;;;;;8.98;3.65;;;;;;;;;;5019606;28;20049;-58
2024/01/01 03:22:12;;;;;;;6.43;3.35;;;;;;;;;;5020716;28;20038;-57
2024/01/01 03:24:38;;;;;;;9.48;3.65;;;;;;;;;;5029618;28;20651;-57
2024/01/01 03:27:05;;;;;;;8.85;4.15;;;;;;;;;;5029076;28;20053;-57
2024/01/01 03:29:32;;;;;;;12.18;4.53;;;;;;;;;;5028352;28;20058;-57
2024/01/01 03:31:58;;;;;;;10.43;3.80;;;;;;;;;;5023130;28;20706;-57
2024/01/01 03:34:24;;;;;;;9.18;3.53;;;;;;;;;;5017614;28;21620;-58
2024/01/01 03:36:50;;;;;;;7.18;3.70;;;;;;;;;;5023451;28;20056;-58
2024/01/01 03:39:16;;;;;;;7.40;3.42;;;;;;;;;;5021616;28;20076;-58
2024/01/01 03:41:42;;;;;;;8.18;3.80;;;;;;;;;;5026324;28;20041;-57
2024/01/01 03:44:10;;;;;;;11.32;4.07;;;;;;;;;;5029865;28;20053;-57
2024/01/01 03:46:36;;;;;;;7.70;3.53;;;;;;;;;;5025840;28;20049;-59
2024/01/01 03:49:03;;;;;;;9.68;3.97;;;;;;;;;;5023632;28;20682;-58
2024/01/01 03:51:29;;;;;;;14.20;4.32;;;;;;;;;;5015696;28;20054;-58
2024/01/01 03:53:56;;;;;;;11.27;3.97;;;;;;;;;;5015156;28;20413;-57
2024/01/01 03:56:22;;;;;;;8.13;3.10;;;;;;;;;;5017056;28;20034;-59
2024/01/01 03:58:48;;;;;;;6.45;3.22;;;;;;;;;;5019571;28;20057;-58
2024/01/01 04:01:14;;;;;;;5.88;2.83;;;;;;;;;;5030197;28;20029;-58
2024/01/01 04:03:41;;;;;;;9.02;4.00;;;;;;;;;;5017378;28;20059;-58
2024/01/01 04:06:07;;;;;;;5.93;2.95;;;;;;;;;;5033543;28;20059;-57
2024/01/01 04:08:33;;;;;;;7.55;3.03;;;;;;;;;;5025188;28;20056;-58
2024/01/01 04:10:59;;;;;;;7.30;3.40;;;;;;;;;;5023105;28;20037;-55
2024/01/01 04:13:25;;;;;;;5.55;2.55;;;;;;;;;;5019202;28;20034;-58
2024/01/01 04:15:52;;;;;;;10.32;2.33;;;;;;;;;;5030212;28;20057;-58
2024/01/01 04:18:18;;;;;;;6.05;2.42;;;;;;;;;;5019748;28;20040;-58
2024/01/01 04:20:44;;;;;;;6.55;2.33;;;;;;;;;;5024556;28;20042;-58
2024/01/01 04:23:10;;;;;;;6.93;2.15;;;;;;;;;;5029180;28;20452;-57
2024/01/01 04:25:36;;;;;;;4.63;1.70;;;;;;;;;;5018875;28;20578;-58
2024/01/01 04:28:03;;;;;;;5.25;2.17;;;;;;;;;;5042126;22;20053;-56
2024/01/01 04:30:29;;;;;;;5.30;1.70;;;;;;;;;;5010610;28;20042;-56
2024/01/01 04:32:55;;;;;;;4.78;1.92;;;;;;;;;;5013918;28;20045;-56
2024/01/01 04:35:21;;;;;;;6.80;1.83;;;;;;;;;;5016757;28;20034;-57
2024/01/01 04:37:47;;;;;;;3.55;1.55;;;;;;;;;;5023986;28;20056;-57
2024/01/01 04:40:13;;;;;;;4.00;1.60;;;;;;;;;;5030839;28;20436;-56
2024/01/01 04:42:40;;;;;;;7.32;1.45;;;;;;;;;;5050220;28;20472;-56
2024/01/01 04:45:06;;;;;;;4.95;1.40;;;;;;;;;;5046954;28;20056;-56
2024/01/01 04:47:32;;;;;;;3.50;0.95;;;;;;;;;;5040779;28;20052;-56
2024/01/01 04:49:58;;;;;;;6.95;1.58;;;;;;;;;;5042187;28;20041;-56
2024/01/01 04:52:24;;;;;;;4.15;1.40;;;;;;;;;;5052209;28;20036;-56
2024/01/01 04:54:54;;;;;;;3.70;1.35;;;;;;;;;;5046829;28;20064;-57
2024/01/01 04:57:20;;;;;;;;;;;;;;;;;;5051900;28;20036;-57
2024/01/01 04:59:46;;;;;;;5.30;1.00;;;;;;;;;;5050151;28;19939;-57
2024/01/01 05:02:14;;;;;;;3.38;0.93;;;;;;;;;;5043456;28;20048;-57
2024/01/01 05:04:41;;;;;;;4.07;1.10;;;;;;;;;;5043540;28;20025;-57
2024/01/01 05:07:07;;;;;;;2.38;0.80;;;;;;;;;;5045672;28;20036;-57
2024/01/01 05:09:33;;;;;;;4.10;0.95;;;;;;;;;;5046291;28;20048;-58
2024/01/01 05:11:59;;;;;;;3.78;0.75;;;;;;;;;;5045128;28;20052;-58
2024/01/01 05:14:25;;;;;;;2.17;0.60;;;;;;;;;;5050806;28;20404;-57
2024/01/01 05:16:52;;;;;;;3.05;0.85;;;;;;;;;;5049650;28;20044;-57
2024/01/01 05:19:18;;;;;;;4.05;0.75;;;;;;;;;;5048301;28;20394;-56
2024/01/01 05:21:44;;;;;;;1.00;0.60;;;;;;;;;;5039094;28;20056;-57
2024/01/01 05:24:10;;;;;;;6.15;0.80;;;;;;;;;;5044734;28;20444;-57
2024/01/01 05:26:36;;;;;;;3.35;0.73;;;;;;;;;;5051164;28;20040;-59
2024/01/01 05:29:02;;;;;;;2.92;0.98;;;;;;;;;;5050237;28;20500;-57
2024/01/01 05:31:28;;;;;;;5.68;1.20;;;;;;;;;;5038329;28;20045;-58
2024/01/01 05:33:54;;;;;;;2.70;1.15;;;;;;;;;;5048974;28;20040;-57
2024/01/01 05:36:20;;;;;;;5.70;1.33;;;;;;;;;;5044478;28;20051;-57
2024/01/01 05:38:46;;;;;;;6.63;0.82;;;;;;;;;;5041106;28;20052;-57
2024/01/01 05:41:12;;;;;;;3.97;0.75;;;;;;;;;;5042257;28;20082;-56
2024/01/01 05:43:38;;;;;;;5.93;0.75;;;;;;;;;;5045713;28;20060;-57
2024/01/01 05:46:06;;;;;;;11.10;1.42;;;;;;;;;;5047089;28;20047;-57
2024/01/01 05:48:32;;;;;;;4.80;1.35;;;;;;;;;;5049640;28;20047;-57
2024/01/01 05:50:58;;;;;;;8.25;1.20;;;;;;;;;;5048805;28;20041;-57
2024/01/01 05:53:24;;;;;;;2.70;1.45;;;;;;;;;;5047625;28;20048;-57
2024/01/01 05:55:50;;;;;;;5.00;1.08;;;;;;;;;;5041585;28;20049;-57
2024/01/01 05:58:16;;;;;;;5.45;0.80;;;;;;;;;;5038303;28;20056;-59
2024/01/01 06:00:42;;;;;;;4.32;1.08;;;;;;;;;;5045890;28;20052;-57
2024/01/01 06:03:08;;;;;;;11.02;2.40;;;;;;;;;;5043239;28;20060;-57
2024/01/01 06:05:35;;;;;;;5.05;1.42;;;;;;;;;;5047533;28;20041;-57
2024/01/01 06:08:02;;;;;;;4.03;0.70;;;;;;;;;;5041426;28;20056;-57
2024/01/01 06:10:29;;;;;;;5.35;0.77;;;;;;;;;;5044161;28;20041;-57
2024/01/01 06:12:56;;;;;;;4.45;0.80;;;;;;;;;;5037585;28;20056;-57
2024/01/01 06:15:23;;;;;;;4.78;0.70;;;;;;;;;;5037675;28;20037;-57
2024/01/01 06:17:50;;;;;;;4.28;1.10;;;;;;;;;;5041876;28;20044;-57
2024/01/01 06:20:16;;;;;;;8.57;1.08;;;;;;;;;;5043874;28;20061;-58
2024/01/01 06:22:45;;;;;;;5.30;0.80;;;;;;;;;;5041800;28;20029;-57
2024/01/01 06:25:11;;;;;;;3.78;0.80;;;;;;;;;;5051473;28;20086;-57
2024/01/01 06:27:38;;;;;;;4.50;0.98;;;;;;;;;;5040159;28;20049;-57
2024/01/01 06:30:05;;;;;;;1.50;0.70;;;;;;;;;;5038239;28;20053;-57
2024/01/01 06:32:32;;;;;;;6.70;0.88;;;;;;;;;;5033565;28;20038;-57
2024/01/01 06:34:58;;;;;;;4.93;1.08;;;;;;;;;;5043916;28;20033;-57
2024/01/01 06:37:24;;;;;;;5.38;0.95;;;;;;;;;;5037440;28;20052;-57
2024/01/01 06:39:50;;;;;;;6.43;0.90;;;;;;;;;;5049310;28;20047;-58
2024/01/01 06:42:17;;;;;;;6.20;1.08;;;;;;;;;;5048885;28;20044;-57
2024/01/01 06:44:43;;;;;;;4.13;0.90;;;;;;;;;;5036060;28;20056;-57
2024/01/01 06:47:09;;;;;;;5.20;1.08;;;;;;;;;;5042870;28;20487;-57
2024/01/01 06:49:36;;;;;;;6.75;1.00;;;;;;;;;;5030045;28;20046;-58
2024/01/01 06:52:07;;;;;;;4.45;0.98;;;;;;;;;;5047231;28;20045;-57
2024/01/01 06:54:33;;;;;;;7.70;1.30;;;;;;;;;;5048788;28;20036;-57
2024/01/01 06:56:59;;;;;;;7.82;1.27;;;;;;;;;;5044083;28;20048;-57
2024/01/01 06:59:30;;;;;;;6.20;1.13;;;;;;;;;;5048622;28;20044;-58
2024/01/01 07:01:58;;;;;;;4.53;1.23;;;;;;;;;;5043650;28;20059;-57
2024/01/01 07:04:25;;;;;;;5.47;2.13;;;;;;;;;;5043932;28;20513;-57
2024/01/01 07:06:51;;;;;;;6.85;1.10;;;;;;;;;;5040469;28;20028;-57
2024/01/01 07:09:18;;;;;;;4.57;1.10;;;;;;;;;;5042271;28;20527;-57
2024/01/01 07:11:44;;;;;;;3.22;0.93;;;;;;;;;;5039961;28;20041;-57
2024/01/01 07:14:10;;;;;;;5.10;0.88;;;;;;;;;;5041640;28;20420;-57
2024/01/01 07:16:36;;;;;;;2.92;1.02;;;;;;;;;;5037327;28;20049;-57
2024/01/01 07:19:02;;;;;;;3.28;1.45;;;;;;;;;;5043659;28;20038;-57
2024/01/01 07:21:28;;;;;;;2.72;0.77;;;;;;;;;;5041739;28;20401;-57
2024/01/01 07:23:54;;;;;;;5.32;0.82;;;;;;;;;;5046783;28;20045;-57
2024/01/01 07:26:20;;;;;;;4.28;1.08;;;;;;;;;;5039465;28;20404;-59
2024/01/01 07:28:47;;;;;;;5.10;1.25;;;;;;;;;;5047160;28;20045;-57
2024/01/01 07:31:13;;;;;;;8.32;1.20;;;;;;;;;;5038486;28;20408;-58
2024/01/01 07:33:39;;;;;;;6.80;1.10;;;;;;;;;;5039355;28;20048;-57
2024/01/01 07:36:11;;;;;;;4.78;1.10;;;;;;;;;;5046385;28;20049;-57
2024/01/01 07:38:38;;;;;;;11.38;1.35;;;;;;;;;;5047898;28;20064;-58
2024/01/01 07:41:04;;;;;;;6.07;1.17;;;;;;;;;;5045423;28;20508;-58
2024/01/01 07:43:30;;;;;;;6.78;1.15;;;;;;;;;;5047074;28;20036;-57
2024/01/01 07:45:57;;;;;;;5.43;1.13;;;;;;;;;;5037229;28;20053;-58
2024/01/01 07:48:23;;;;;;;6.85;1.50;;;;;;;;;;5041073;28;20044;-58
2024/01/01 07:50:49;;;;;;;4.65;1.10;;;;;;;;;;5047911;28;20056;-57
2024/01/01 07:53:15;;;;;;;6.28;1.10;;;;;;;;;;5038003;28;20045;-58
2024/01/01 07:55:41;;;;;;;7.30;2.00;;;;;;;;;;5047385;28;20052;-58
2024/01/01 07:58:07;;;;;;;2.58;1.38;;;;;;;;;;5049793;28;20036;-58
2024/01/01 08:00:33;;;;;;;8.82;1.63;;;;;;;;;;5045371;28;20049;-58
2024/01/01 08:02:59;;;;;;;5.35;1.40;;;;;;;;;;5048527;28;20037;-57
2024/01/01 08:05:25;;;;;;;6.45;1.63;;;;;;;;;;5044068;28;20405;-58
2024/01/01 08:07:52;;;;;;;5.25;1.40;;;;;;;;;;5036234;28;20053;-58
2024/01/01 08:10:18;;;;;;;6.35;1.67;;;;;;;;;;5034246;28;20037;-57
2024/01/01 08:12:44;;;;;;;5.90;1.55;;;;;;;;;;5036852;28;20053;-57
2024/01/01 08:15:10;;;;;;;9.07;2.22;;;;;;;;;;5043161;28;20052;-57
2024/01/01 08:17:36;;;;;;;8.73;1.30;;;;;;;;;;5051022;28;20505;-57
2024/01/01 08:20:02;;;;;;;9.90;1.80;;;;;;;;;;5044735;28;20037;-57
2024/01/01 08:22:28;;;;;;;6.63;1.77;;;;;;;;;;5046412;28;20675;-57
2024/01/01 08:24:55;;;;;;;6.25;1.17;;;;;;;;;;5038133;28;20061;-57
2024/01/01 08:27:21;;;;;;;6.03;1.35;;;;;;;;;;5044467;28;20057;-57
2024/01/01 08:29:47;;;;;;;5.30;1.73;;;;;;;;;;5041813;28;20060;-57
2024/01/01 08:32:13;;;;;;;3.55;1.20;;;;;;;;;;5048706;28;20049;-57
2024/01/01 08:34:39;;;;;;;4.25;1.50;;;;;;;;;;5047372;28;20400;-56
2024/01/01 08:37:05;;;;;;;6.22;1.95;;;;;;;;;;5043779;28;20690;-57
2024/01/01 08:39:32;;;;;;;6.75;1.20;;;;;;;;;;5042872;28;20048;-57
2024/01/01 08:41:58;;;;;;;3.72;1.13;;;;;;;;;;5046369;28;20452;-57
2024/01/01 08:44:24;;;;;;;4.47;1.48;;;;;;;;;;5044583;28;20029;-57
2024/01/01 08:46:50;;;;;;;6.47;1.50;;;;;;;;;;5045600;28;20107;-57
2024/01/01 08:49:16;;;;;;;6.32;1.40;;;;;;;;;;5038959;28;20040;-58
2024/01/01 08:51:43;;;;;;;4.82;1.65;;;;;;;;;;5045513;28;20056;-57
2024/01/01 08:54:09;;;;;;;11.50;2.20;;;;;;;;;;5041564;28;20048;-57
2024/01/01 08:56:35;;;;;;;6.13;2.05;;;;;;;;;;5045054;28;20047;-60
2024/01/01 08:59:01;;;;;;;4.90;1.00;;;;;;;;;;5050621;28;20032;-55
2024/01/01 09:01:27;;;;;;;5.47;1.42;;;;;;;;;;5042742;28;20057;-57
2024/01/01 09:03:56;;;;;;;3.60;1.05;;;;;;;;;;5047112;28;20028;-58
2024/01/01 09:06:23;;;;;;;2.85;1.00;;;;;;;;;;5044492;28;20045;-58
2024/01/01 09:08:49;;;;;;;2.22;0.90;;;;;;;;;;5046160;28;20048;-58
2024/01/01 09:11:15;;;;;;;7.47;1.10;;;;;;;;;;5048475;28;20068;-58
2024/01/01 09:13:42;;;;;;;7.32;1.88;;;;;;;;;;5041659;28;20037;-58
2024/01/01 09:16:08;;;;;;;2.65;0.70;;;;;;;;;;5045139;28;20052;-58
2024/01/01 09:18:34;;;;;;;6.88;1.00;;;;;;;;;;5041852;28;20516;-58
2024/01/01 09:21:00;;;;;;;6.10;1.27;;;;;;;;;;5043640;28;20060;-58
2024/01/01 09:23:27;;;;;;;5.32;1.20;;;;;;;;;;5043439;28;20036;-58
2024/01/01 09:25:54;;;;;;;2.90;0.70;;;;;;;;;;5051461;28;20519;-58
2024/01/01 09:28:20;;;;;;;8.02;1.33;;;;;;;;;;5036700;28;20025;-60
2024/01/01 09:30:46;;;;;;;4.93;1.45;;;;;;;;;;5043109;28;20053;-59
2024/01/01 09:33:13;;;;;;;2.47;0.73;;;;;;;;;;5050847;28;20037;-58
2024/01/01 09:35:39;;;;;;;8.10;2.65;;;;;;;;;;5048519;28;20036;-58
2024/01/01 09:38:05;;;;;;;8.25;1.33;;;;;;;;;;5041042;28;20045;-58
2024/01/01 09:40:31;;;;;;;4.03;0.80;;;;;;;;;;5037342;28;20077;-58
2024/01/01 09:42:57;;;;;;;4.18;0.88;;;;;;;;;;5049839;28;20034;-58
2024/01/01 09:45:25;;;;;;;4.93;0.73;;;;;;;;;;5045335;28;20049;-58
2024/01/01 09:47:51;;;;;;;4.93;1.10;;;;;;;;;;5040525;28;20041;-57
2024/01/01 09:50:17;;;;;;;1.95;0.70;;;;;;;;;;5047428;28;20041;-58
2024/01/01 09:52:43;;;;;;;2.90;0.93;;;;;;;;;;5042620;28;20056;-57
2024/01/01 09:55:09;;;;;;;2.22;0.88;;;;;;;;;;5044278;28;20029;-57
2024/01/01 09:57:35;;;;;;;4.55;1.70;;;;;;;;;;5049621;28;20484;-57
2024/01/01 10:00:05;;;;;;;5.47;1.05;;;;;;;;;;5043809;28;20033;-57
2024/01/01 10:02:37;;;;;;;4.88;0.60;;;;;;;;;;5040115;28;20052;-58
2024/01/01 10:05:12;;;;;;;5.75;1.13;;;;;;;;;;5042934;28;20041;-59
2024/01/01 10:07:38;;;;;;;3.17;0.80;;;;;;;;;;5042428;28;20775;-57
2024/01/01 10:10:05;;;;;;;4.55;0.88;;;;;;;;;;5044550;28;20037;-58
2024/01/01 10:12:34;;;;;;;4.10;0.90;;;;;;;;;;5045594;28;20044;-60
2024/01/01 10:15:00;;;;;;;5.03;0.75;;;;;;;;;;5044082;28;20513;-57
2024/01/01 10:17:26;;;;;;;4.00;1.45;;;;;;;;;;5035529;28;20052;-57
2024/01/01 10:19:55;;;;;;;2.83;1.10;;;;;;;;;;5040456;28;20041;-58
2024/01/01 10:22:23;;;;;;;4.15;1.17;;;;;;;;;;5034805;28;20674;-59
2024/01/01 10:24:52;;;;;;;2.78;0.85;;;;;;;;;;5044375;28;20037;-58
2024/01/01 10:27:20;;;;;;;5.20;1.05;;;;;;;;;;5045006;28;20040;-59
2024/01/01 10:29:47;;;;;;;8.80;1.77;;;;;;;;;;5046942;28;20048;-59
2024/01/01 10:32:17;;;;;;;5.82;1.25;;;;;;;;;;5039915;28;20043;-59
2024/01/01 10:34:47;;;;;;;6.65;1.67;;;;;;;;;;5042187;28;20044;-59
2024/01/01 10:37:15;;;;;;;5.13;1.65;;;;;;;;;;5041511;28;20045;-57
2024/01/01 10:39:43;;;;;;;3.28;1.10;;;;;;;;;;5047421;28;20033;-57
2024/01/01 10:42:10;;;;;;;11.60;1.10;;;;;;;;;;5049167;28;20037;-57
2024/01/01 10:44:38;;;;;;;5.63;1.08;;;;;;;;;;5034507;28;20041;-57
2024/01/01 10:47:08;;;;;;;4.00;1.05;;;;;;;;;;5044145;28;20392;-58
2024/01/01 10:49:35;;;;;;;5.22;1.17;;;;;;;;;;5037457;28;20052;-58
2024/01/01 10:52:25;;;;;;;5.53;0.88;;;;;;;;;;5039230;28;20424;-59
2024/01/01 10:55:13;;;;;;;7.68;1.60;;;;;;;;;;5047373;28;20044;-58
2024/01/01 10:57:49;;;;;;;5.35;0.82;;;;;;;;;;5046389;28;20033;-58
2024/01/01 11:00:28;;;;;;;10.30;1.30;;;;;;;;;;5042254;28;20040;-58
2024/01/01 11:02:55;;;;;;;5.03;1.00;;;;;;;;;;5040188;28;20404;-58
2024/01/01 11:05:33;;;;;;;3.65;0.70;;;;;;;;;;5043184;28;20385;-58
2024/01/01 11:08:01;;;;;;;6.90;1.13;;;;;;;;;;5033215;28;20036;-58
2024/01/01 11:10:34;;;;;;;5.85;1.15;;;;;;;;;;5046598;28;20047;-58
2024/01/01 11:13:01;;;;;;;9.05;1.50;;;;;;;;;;5015761;28;20416;-58
2024/01/01 11:15:40;;;;;;;6.05;1.48;;;;;;;;;;5034378;28;20037;-58
2024/01/01 11:18:14;;;;;;;5.95;2.03;;;;;;;;;;5043256;28;20041;-58
2024/01/01 11:20:52;;;;;;;7.10;1.60;;;;;;;;;;5044948;28;20044;-58
2024/01/01 11:23:36;;;;;;;3.33;1.20;;;;;;;;;;5037755;28;20040;-59
2024/01/01 11:26:23;;;;;;;5.70;1.52;;;;;;;;;;5033608;28;20044;-58
2024/01/01 11:28:51;;;;;;;5.10;0.82;;;;;;;;;;5044325;28;20037;-58
2024/01/01 11:31:18;;;;;;;5.30;1.35;;;;;;;;;;5041665;28;20052;-58
2024/01/01 11:33:44;;;;;;;4.07;1.05;;;;;;;;;;5040060;28;20059;-57
2024/01/01 11:36:10;;;;;;;5.55;1.00;;;;;;;;;;5044303;28;20045;-58
2024/01/01 11:38:37;;;;;;;3.63;0.88;;;;;;;;;;5038953;28;20033;-58
2024/01/01 11:41:04;;;;;;;5.32;1.45;;;;;;;;;;5016836;28;20049;-58
2024/01/01 11:43:31;;;;;;;10.25;1.75;;;;;;;;;;5042346;28;20045;-58
2024/01/01 11:45:57;;;;;;;2.63;1.00;;;;;;;;;;5045789;28;20484;-58
2024/01/01 11:48:24;;;;;;;7.95;1.55;;;;;;;;;;5046881;28;20029;-58
2024/01/01 11:50:53;;;;;;;5.05;1.60;;;;;;;;;;5040990;28;20063;-58
2024/01/01 11:53:19;;;;;;;8.45;1.42;;;;;;;;;;5050404;28;20041;-58
2024/01/01 11:55:46;;;;;;;6.00;1.45;;;;;;;;;;5042923;28;20037;-58
2024/01/01 11:58:13;;;;;;;5.47;1.20;;;;;;;;;;5051412;28;20052;-58
2024/01/01 12:00:39;;;;;;;6.05;1.00;;;;;;;;;;5044813;28;20802;-58
2024/01/01 12:03:06;;;;;;;4.93;1.50;;;;;;;;;;5050498;28;20056;-59
2024/01/01 12:05:32;;;;;;;7.10;1.38;;;;;;;;;;5041470;28;20059;-58
2024/01/01 12:08:11;;;;;;;5.57;1.10;;;;;;;;;;5047791;28;20630;-57
2024/01/01 12:10:37;;;;;;;6.50;0.90;;;;;;;;;;5044808;28;20028;-58
2024/01/01 12:13:03;;;;;;;3.80;1.10;;;;;;;;;;5039909;28;20477;-57
2024/01/01 12:15:31;;;;;;;4.03;1.02;;;;;;;;;;5047224;28;20037;-57
2024/01/01 12:17:57;;;;;;;5.82;1.27;;;;;;;;;;5038496;28;20048;-58
2024/01/01 12:20:23;;;;;;;6.97;1.00;;;;;;;;;;5049835;28;20040;-57
2024/01/01 12:22:50;;;;;;;7.57;2.20;;;;;;;;;;5043306;28;20049;-58
2024/01/01 12:25:21;;;;;;;5.60;1.13;;;;;;;;;;5040558;28;20511;-57
2024/01/01 12:28:07;;;;;;;7.90;1.52;;;;;;;;;;5041585;28;20056;-58
2024/01/01 12:30:34;;;;;;;9.00;1.25;;;;;;;;;;5038373;28;20400;-57
2024/01/01 12:33:01;;;;;;;4.45;0.88;;;;;;;;;;5049942;28;20059;-57
2024/01/01 12:35:27;;;;;;;7.43;1.75;;;;;;;;;;5037618;28;20048;-57
2024/01/01 12:37:54;;;;;;;8.18;1.65;;;;;;;;;;5038945;28;20037;-58
2024/01/01 12:40:21;;;;;;;6.32;1.50;;;;;;;;;;5048965;28;20037;-58
2024/01/01 12:42:47;;;;;;;8.23;2.60;;;;;;;;;;5047742;28;20037;-58
2024/01/01 12:45:13;;;;;;;8.77;1.77;;;;;;;;;;5044077;28;20041;-57
2024/01/01 12:47:40;;;;;;;3.28;0.95;;;;;;;;;;5049777;28;20048;-58
2024/01/01 12:50:07;;;;;;;9.73;1.83;;;;;;;;;;5045223;28;20056;-58
2024/01/01 12:52:35;;;;;;;6.97;1.10;;;;;;;;;;5044317;28;20049;-58
2024/01/01 12:55:02;;;;;;;6.15;0.80;;;;;;;;;;5048421;28;20404;-58
2024/01/01 12:57:31;;;;;;;4.70;1.60;;;;;;;;;;5050137;28;20045;-58
2024/01/01 12:59:57;;;;;;;8.13;1.92;;;;;;;;;;5042882;28;20037;-58
2024/01/01 13:02:23;;;;;;;7.45;1.85;;;;;;;;;;5035549;28;20053;-59
2024/01/01 13:04:50;;;;;;;7.32;1.63;;;;;;;;;;5043057;28;20045;-59
2024/01/01 13:07:16;;;;;;;5.20;1.15;;;;;;;;;;5048380;28;20040;-58
2024/01/01 13:09:42;;;;;;;9.13;2.63;;;;;;;;;;5051893;28;20052;-58
2024/01/01 13:12:08;;;;;;;10.52;2.22;;;;;;;;;;5045634;28;20393;-59
2024/01/01 13:14:34;;;;;;;7.32;1.70;;;;;;;;;;5042805;28;20033;-58
2024/01/01 13:17:04;;;;;;;7.68;1.60;;;;;;;;;;5038080;28;20032;-60
2024/01/01 13:19:32;;;;;;;8.98;1.35;;;;;;;;;;5050164;28;20052;-59
2024/01/01 13:21:59;;;;;;;4.80;1.08;;;;;;;;;;5045267;28;20554;-59
2024/01/01 13:24:25;;;;;;;9.13;1.25;;;;;;;;;;5041717;28;20056;-59
2024/01/01 13:26:52;;;;;;;7.22;1.50;;;;;;;;;;5043231;28;20048;-58
2024/01/01 13:29:18;;;;;;;11.43;3.22;;;;;;;;;;5047775;28;20044;-59
2024/01/01 13:31:44;;;;;;;4.05;1.35;;;;;;;;;;5044131;28;20044;-60
2024/01/01 13:34:10;;;;;;;9.75;1.20;;;;;;;;;;5051110;28;20036;-59
2024/01/01 13:36:36;;;;;;;6.43;1.95;;;;;;;;;;5048231;28;20033;-59
2024/01/01 13:39:03;;;;;;;9.35;1.48;;;;;;;;;;5035483;28;20057;-59
2024/01/01 13:41:29;;;;;;;12.65;1.52;;;;;;;;;;5039726;28;20036;-59
2024/01/01 13:43:57;;;;;;;7.03;1.58;;;;;;;;;;5036630;28;20056;-59
2024/01/01 13:46:23;;;;;;;5.97;1.17;;;;;;;;;;5049674;28;20037;-59
2024/01/01 13:48:49;;;;;;;5.93;1.27;;;;;;;;;;5032150;28;20037;-58
2024/01/01 13:51:16;;;;;;;6.55;1.40;;;;;;;;;;5046096;28;20045;-58
2024/01/01 13:53:43;;;;;;;8.23;1.67;;;;;;;;;;5051727;28;20034;-59
2024/01/01 13:56:17;;;;;;;5.72;1.35;;;;;;;;;;5036382;28;20413;-57
2024/01/01 13:58:43;;;;;;;9.93;1.73;;;;;;;;;;5033227;28;20030;-58
2024/01/01 14:01:09;;;;;;;3.65;1.40;;;;;;;;;;5046810;28;20052;-58
2024/01/01 14:03:37;;;;;;;5.95;1.17;;;;;;;;;;5046223;28;20037;-57
2024/01/01 14:06:05;;;;;;;6.80;2.25;;;;;;;;;;5041768;28;20036;-58
2024/01/01 14:08:31;;;;;;;4.47;1.00;;;;;;;;;;5045909;28;20466;-57
2024/01/01 14:10:57;;;;;;;6.63;1.35;;;;;;;;;;5041126;28;20053;-58
2024/01/01 14:13:24;;;;;;;7.35;1.20;;;;;;;;;;5050538;28;20416;-59
2024/01/01 14:15:51;;;;;;;6.90;1.02;;;;;;;;;;5040784;28;20053;-58
2024/01/01 14:18:17;;;;;;;9.73;1.92;;;;;;;;;;5038205;28;20049;-58
2024/01/01 14:20:43;;;;;;;6.53;1.13;;;;;;;;;;5047502;28;20045;-57
2024/01/01 14:23:14;;;;;;;5.80;1.30;;;;;;;;;;5040488;28;20072;-57
2024/01/01 14:25:42;;;;;;;5.55;1.40;;;;;;;;;;5042863;28;20504;-59
2024/01/01 14:28:08;;;;;;;5.07;1.92;;;;;;;;;;5040552;28;20496;-58
2024/01/01 14:30:35;;;;;;;4.20;1.08;;;;;;;;;;5050356;28;20036;-58
2024/01/01 14:33:02;;;;;;;6.95;1.50;;;;;;;;;;5033410;28;20060;-58
2024/01/01 14:35:28;;;;;;;5.95;1.40;;;;;;;;;;5039565;28;20033;-59
2024/01/01 14:37:54;;;;;;;8.73;2.20;;;;;;;;;;5040051;28;20068;-58
2024/01/01 14:40:20;;;;;;;7.07;1.60;;;;;;;;;;5049420;28;20041;-58